sensor_id;sensor_type;location;lat;lon;timestamp;pressure;altitude;pressure_sealevel;temperature;humidity
7376;BME280;3728;42.266;24.944;2023-03-05T00:01:31;99208.13;;;6.40;100.00
7376;BME280;3728;42.266;24.944;2023-03-05T00:04:01;99210.31;;;6.52;100.00
7376;BME280;3728;42.266;24.944;2023-03-05T00:06:31;99209.88;;;7.01;100.00
7376;BME280;3728;42.266;24.944;2023-03-05T00:08:59;99208.88;;;6.41;100.00
7376;BME280;3728;42.266;24.944;2023-03-05T00:11:28;99200.44;;;6.30;100.00
7376;BME280;3728;42.266;24.944;2023-03-05T00:13:57;99200.25;;;6.03;100.00
7376;BME280;3728;42.266;24.944;2023-03-05T00:16:25;99200.06;;;5.94;100.00
7376;BME280;3728;42.266;24.944;2023-03-05T00:18:57;99193.56;;;5.97;100.00
7376;BME280;3728;42.266;24.944;2023-03-05T00:21:38;99186.88;;;5.91;100.00
7376;BME280;3728;42.266;24.944;2023-03-05T00:24:12;99188.78;;;6.04;100.00
7376;BME280;3728;42.266;24.944;2023-03-05T00:26:43;99191.06;;;6.10;100.00
7376;BME280;3728;42.266;24.944;2023-03-05T00:29:15;99182.16;;;6.16;100.00
7376;BME280;3728;42.266;24.944;2023-03-05T00:31:44;99192.22;;;6.23;100.00
7376;BME280;3728;42.266;24.944;2023-03-05T00:34:16;99191.84;;;5.87;100.00
7376;BME280;3728;42.266;24.944;2023-03-05T00:36:50;99177.75;;;5.93;100.00
7376;BME280;3728;42.266;24.944;2023-03-05T00:39:19;99179.72;;;6.01;100.00
7376;BME280;3728;42.266;24.944;2023-03-05T00:41:47;99172.63;;;5.88;100.00
7376;BME280;3728;42.266;24.944;2023-03-05T00:44:15;99183.50;;;5.90;100.00
7376;BME280;3728;42.266;24.944;2023-03-05T00:46:46;99176.75;;;5.89;100.00
7376;BME280;3728;42.266;24.944;2023-03-05T00:49:14;99173.47;;;6.26;100.00
7376;BME280;3728;42.266;24.944;2023-03-05T00:51:41;99175.00;;;6.27;100.00
7376;BME280;3728;42.266;24.944;2023-03-05T00:54:09;99181.41;;;6.35;100.00
7376;BME280;3728;42.266;24.944;2023-03-05T00:56:37;99180.41;;;6.31;100.00
7376;BME280;3728;42.266;24.944;2023-03-05T00:59:04;99172.75;;;6.39;100.00
7376;BME280;3728;42.266;24.944;2023-03-05T01:01:32;99165.84;;;6.30;100.00
7376;BME280;3728;42.266;24.944;2023-03-05T01:04:01;99169.38;;;5.96;100.00
7376;BME280;3728;42.266;24.944;2023-03-05T01:06:28;99164.00;;;6.11;100.00
7376;BME280;3728;42.266;24.944;2023-03-05T01:08:56;99161.72;;;5.86;100.00
7376;BME280;3728;42.266;24.944;2023-03-05T01:11:25;99161.00;;;5.52;100.00
7376;BME280;3728;42.266;24.944;2023-03-05T01:13:52;99160.38;;;5.36;100.00
7376;BME280;3728;42.266;24.944;2023-03-05T01:16:20;99161.81;;;5.19;100.00
7376;BME280;3728;42.266;24.944;2023-03-05T01:18:48;99155.78;;;5.28;100.00
7376;BME280;3728;42.266;24.944;2023-03-05T01:21:16;99159.97;;;5.24;100.00
7376;BME280;3728;42.266;24.944;2023-03-05T01:23:44;99153.09;;;5.10;100.00
7376;BME280;3728;42.266;24.944;2023-03-05T01:26:12;99152.91;;;5.30;100.00
7376;BME280;3728;42.266;24.944;2023-03-05T01:28:39;99150.16;;;5.16;100.00
7376;BME280;3728;42.266;24.944;2023-03-05T01:31:10;99149.50;;;5.06;100.00
7376;BME280;3728;42.266;24.944;2023-03-05T01:33:38;99153.16;;;5.00;100.00
7376;BME280;3728;42.266;24.944;2023-03-05T01:36:11;99147.88;;;5.10;100.00
7376;BME280;3728;42.266;24.944;2023-03-05T01:38:42;99156.19;;;5.12;100.00
7376;BME280;3728;42.266;24.944;2023-03-05T01:41:13;99159.78;;;5.16;100.00
7376;BME280;3728;42.266;24.944;2023-03-05T01:43:43;99153.47;;;5.27;100.00
7376;BME280;3728;42.266;24.944;2023-03-05T01:46:30;99157.72;;;5.13;100.00
7376;BME280;3728;42.266;24.944;2023-03-05T01:52:09;99152.09;;;5.06;100.00
7376;BME280;3728;42.266;24.944;2023-03-05T01:57:39;99150.09;;;4.93;100.00
7376;BME280;3728;42.266;24.944;2023-03-05T02:00:15;99142.34;;;4.88;100.00
7376;BME280;3728;42.266;24.944;2023-03-05T02:02:49;99138.97;;;4.92;100.00
7376;BME280;3728;42.266;24.944;2023-03-05T02:07:49;99131.94;;;4.93;100.00
7376;BME280;3728;42.266;24.944;2023-03-05T02:10:18;99140.84;;;4.81;100.00
7376;BME280;3728;42.266;24.944;2023-03-05T02:13:10;99141.31;;;4.89;100.00
7376;BME280;3728;42.266;24.944;2023-03-05T02:15:43;99134.75;;;5.01;100.00
7376;BME280;3728;42.266;24.944;2023-03-05T02:18:13;99135.84;;;4.90;100.00
7376;BME280;3728;42.266;24.944;2023-03-05T02:23:27;99137.63;;;4.95;100.00
7376;BME280;3728;42.266;24.944;2023-03-05T02:26:09;99137.06;;;5.03;100.00
7376;BME280;3728;42.266;24.944;2023-03-05T02:28:49;99139.09;;;5.06;100.00
7376;BME280;3728;42.266;24.944;2023-03-05T02:31:21;99136.88;;;5.23;100.00
7376;BME280;3728;42.266;24.944;2023-03-05T02:33:51;99140.19;;;5.28;100.00
7376;BME280;3728;42.266;24.944;2023-03-05T02:36:19;99145.13;;;5.30;100.00
7376;BME280;3728;42.266;24.944;2023-03-05T02:38:50;99139.16;;;5.29;100.00
7376;BME280;3728;42.266;24.944;2023-03-05T02:41:19;99146.16;;;5.29;100.00
7376;BME280;3728;42.266;24.944;2023-03-05T02:43:47;99136.81;;;5.28;100.00
7376;BME280;3728;42.266;24.944;2023-03-05T02:46:15;99126.84;;;5.40;100.00
7376;BME280;3728;42.266;24.944;2023-03-05T02:48:43;99125.34;;;5.34;100.00
7376;BME280;3728;42.266;24.944;2023-03-05T02:51:12;99129.38;;;5.45;100.00
7376;BME280;3728;42.266;24.944;2023-03-05T02:53:42;99125.31;;;5.39;100.00
7376;BME280;3728;42.266;24.944;2023-03-05T02:56:10;99117.47;;;5.44;100.00
7376;BME280;3728;42.266;24.944;2023-03-05T02:58:38;99115.38;;;5.46;100.00
7376;BME280;3728;42.266;24.944;2023-03-05T03:01:07;99109.69;;;5.44;100.00
7376;BME280;3728;42.266;24.944;2023-03-05T03:03:36;99116.13;;;5.46;100.00
7376;BME280;3728;42.266;24.944;2023-03-05T03:06:08;99118.66;;;5.51;100.00
7376;BME280;3728;42.266;24.944;2023-03-05T03:08:35;99114.59;;;5.45;100.00
7376;BME280;3728;42.266;24.944;2023-03-05T03:11:05;99118.91;;;5.79;100.00
7376;BME280;3728;42.266;24.944;2023-03-05T03:13:34;99114.97;;;5.81;100.00
7376;BME280;3728;42.266;24.944;2023-03-05T03:16:14;99120.91;;;5.87;100.00
7376;BME280;3728;42.266;24.944;2023-03-05T03:18:45;99121.94;;;5.62;100.00
7376;BME280;3728;42.266;24.944;2023-03-05T03:21:19;99117.44;;;5.68;100.00
7376;BME280;3728;42.266;24.944;2023-03-05T03:23:49;99115.56;;;5.73;100.00
7376;BME280;3728;42.266;24.944;2023-03-05T03:26:17;99120.44;;;5.56;100.00
7376;BME280;3728;42.266;24.944;2023-03-05T03:28:45;99120.19;;;5.58;100.00
7376;BME280;3728;42.266;24.944;2023-03-05T03:31:12;99123.91;;;6.17;100.00
7376;BME280;3728;42.266;24.944;2023-03-05T03:33:40;99115.38;;;5.93;100.00
7376;BME280;3728;42.266;24.944;2023-03-05T03:36:08;99120.63;;;5.65;100.00
7376;BME280;3728;42.266;24.944;2023-03-05T03:38:38;99126.72;;;6.40;100.00
7376;BME280;3728;42.266;24.944;2023-03-05T03:41:07;99135.41;;;5.93;100.00
7376;BME280;3728;42.266;24.944;2023-03-05T03:43:35;99137.78;;;5.61;100.00
7376;BME280;3728;42.266;24.944;2023-03-05T03:46:06;99130.06;;;5.56;100.00
7376;BME280;3728;42.266;24.944;2023-03-05T03:48:34;99138.22;;;5.68;100.00
7376;BME280;3728;42.266;24.944;2023-03-05T03:51:05;99126.69;;;5.55;100.00
7376;BME280;3728;42.266;24.944;2023-03-05T03:53:33;99126.63;;;5.36;100.00
7376;BME280;3728;42.266;24.944;2023-03-05T03:56:01;99124.00;;;5.13;100.00
7376;BME280;3728;42.266;24.944;2023-03-05T03:58:29;99131.38;;;5.29;100.00
7376;BME280;3728;42.266;24.944;2023-03-05T04:00:56;99122.88;;;5.19;100.00
7376;BME280;3728;42.266;24.944;2023-03-05T04:03:24;99118.47;;;5.19;100.00
7376;BME280;3728;42.266;24.944;2023-03-05T04:05:51;99111.84;;;5.08;100.00
7376;BME280;3728;42.266;24.944;2023-03-05T04:08:19;99109.53;;;5.02;100.00
7376;BME280;3728;42.266;24.944;2023-03-05T04:10:47;99113.78;;;4.93;100.00
7376;BME280;3728;42.266;24.944;2023-03-05T04:13:17;99118.16;;;4.97;100.00
7376;BME280;3728;42.266;24.944;2023-03-05T04:15:44;99117.31;;;5.02;100.00
7376;BME280;3728;42.266;24.944;2023-03-05T04:18:12;99114.47;;;5.03;100.00
7376;BME280;3728;42.266;24.944;2023-03-05T04:20:39;99110.88;;;4.99;100.00
7376;BME280;3728;42.266;24.944;2023-03-05T04:23:07;99117.16;;;4.93;100.00
7376;BME280;3728;42.266;24.944;2023-03-05T04:25:35;99117.44;;;4.92;100.00
7376;BME280;3728;42.266;24.944;2023-03-05T04:28:02;99122.16;;;4.84;100.00
7376;BME280;3728;42.266;24.944;2023-03-05T04:30:30;99120.09;;;4.81;100.00
7376;BME280;3728;42.266;24.944;2023-03-05T04:32:58;99117.22;;;4.83;100.00
7376;BME280;3728;42.266;24.944;2023-03-05T04:35:25;99118.28;;;4.82;100.00
7376;BME280;3728;42.266;24.944;2023-03-05T04:37:53;99115.38;;;4.89;100.00
7376;BME280;3728;42.266;24.944;2023-03-05T04:40:20;99116.88;;;4.95;100.00
7376;BME280;3728;42.266;24.944;2023-03-05T04:42:48;99118.38;;;5.01;100.00
7376;BME280;3728;42.266;24.944;2023-03-05T04:45:16;99118.94;;;4.98;100.00
7376;BME280;3728;42.266;24.944;2023-03-05T04:47:43;99113.31;;;4.85;100.00
7376;BME280;3728;42.266;24.944;2023-03-05T04:50:11;99111.78;;;4.84;100.00
7376;BME280;3728;42.266;24.944;2023-03-05T04:52:44;99121.25;;;4.99;100.00
7376;BME280;3728;42.266;24.944;2023-03-05T04:55:13;99128.22;;;5.04;100.00
7376;BME280;3728;42.266;24.944;2023-03-05T04:57:41;99128.81;;;4.96;100.00
7376;BME280;3728;42.266;24.944;2023-03-05T05:00:11;99133.00;;;4.92;100.00
7376;BME280;3728;42.266;24.944;2023-03-05T05:02:41;99127.41;;;4.74;100.00
7376;BME280;3728;42.266;24.944;2023-03-05T05:05:15;99131.47;;;4.85;100.00
7376;BME280;3728;42.266;24.944;2023-03-05T05:07:46;99122.19;;;4.79;100.00
7376;BME280;3728;42.266;24.944;2023-03-05T05:10:14;99129.63;;;4.91;100.00
7376;BME280;3728;42.266;24.944;2023-03-05T05:12:42;99133.47;;;4.99;100.00
7376;BME280;3728;42.266;24.944;2023-03-05T05:15:10;99145.00;;;5.11;100.00
7376;BME280;3728;42.266;24.944;2023-03-05T05:17:38;99134.88;;;5.15;100.00
7376;BME280;3728;42.266;24.944;2023-03-05T05:20:07;99138.97;;;5.21;100.00
7376;BME280;3728;42.266;24.944;2023-03-05T05:22:37;99140.59;;;5.12;100.00
7376;BME280;3728;42.266;24.944;2023-03-05T05:25:05;99134.88;;;5.15;100.00
7376;BME280;3728;42.266;24.944;2023-03-05T05:27:33;99139.81;;;5.11;100.00
7376;BME280;3728;42.266;24.944;2023-03-05T05:30:00;99144.78;;;5.08;100.00
7376;BME280;3728;42.266;24.944;2023-03-05T05:32:29;99142.16;;;5.13;100.00
7376;BME280;3728;42.266;24.944;2023-03-05T05:34:57;99142.13;;;5.18;100.00
7376;BME280;3728;42.266;24.944;2023-03-05T05:37:26;99147.00;;;5.24;100.00
7376;BME280;3728;42.266;24.944;2023-03-05T05:39:54;99152.03;;;5.39;100.00
7376;BME280;3728;42.266;24.944;2023-03-05T05:42:23;99152.22;;;5.48;100.00
7376;BME280;3728;42.266;24.944;2023-03-05T05:44:51;99148.63;;;5.68;100.00
7376;BME280;3728;42.266;24.944;2023-03-05T05:47:21;99148.97;;;5.61;100.00
7376;BME280;3728;42.266;24.944;2023-03-05T05:49:48;99147.53;;;5.74;100.00
7376;BME280;3728;42.266;24.944;2023-03-05T05:52:16;99150.41;;;5.96;100.00
7376;BME280;3728;42.266;24.944;2023-03-05T05:54:43;99151.63;;;6.03;100.00
7376;BME280;3728;42.266;24.944;2023-03-05T05:57:11;99151.56;;;6.08;100.00
7376;BME280;3728;42.266;24.944;2023-03-05T05:59:39;99161.91;;;6.13;100.00
7376;BME280;3728;42.266;24.944;2023-03-05T06:02:07;99164.31;;;6.10;100.00
7376;BME280;3728;42.266;24.944;2023-03-05T06:04:36;99169.06;;;6.03;100.00
7376;BME280;3728;42.266;24.944;2023-03-05T06:07:05;99172.66;;;6.07;100.00
7376;BME280;3728;42.266;24.944;2023-03-05T06:09:36;99177.50;;;6.13;100.00
7376;BME280;3728;42.266;24.944;2023-03-05T06:12:03;99174.97;;;6.08;100.00
7376;BME280;3728;42.266;24.944;2023-03-05T06:14:31;99172.78;;;6.15;100.00
7376;BME280;3728;42.266;24.944;2023-03-05T06:16:59;99174.81;;;6.42;100.00
7376;BME280;3728;42.266;24.944;2023-03-05T06:19:27;99181.28;;;6.63;100.00
7376;BME280;3728;42.266;24.944;2023-03-05T06:21:54;99173.59;;;6.72;100.00
7376;BME280;3728;42.266;24.944;2023-03-05T06:24:22;99171.00;;;6.72;100.00
7376;BME280;3728;42.266;24.944;2023-03-05T06:26:50;99175.44;;;6.90;100.00
7376;BME280;3728;42.266;24.944;2023-03-05T06:29:18;99170.13;;;6.95;100.00
7376;BME280;3728;42.266;24.944;2023-03-05T06:31:45;99181.81;;;6.98;100.00
7376;BME280;3728;42.266;24.944;2023-03-05T06:34:13;99170.34;;;6.99;100.00
7376;BME280;3728;42.266;24.944;2023-03-05T06:36:40;99165.84;;;7.04;100.00
7376;BME280;3728;42.266;24.944;2023-03-05T06:39:09;99175.09;;;7.10;100.00
7376;BME280;3728;42.266;24.944;2023-03-05T06:41:36;99168.81;;;7.30;100.00
7376;BME280;3728;42.266;24.944;2023-03-05T06:44:04;99179.06;;;7.53;100.00
7376;BME280;3728;42.266;24.944;2023-03-05T06:46:34;99173.28;;;7.70;100.00
7376;BME280;3728;42.266;24.944;2023-03-05T06:49:05;99172.31;;;7.80;100.00
7376;BME280;3728;42.266;24.944;2023-03-05T06:51:38;99181.50;;;7.91;100.00
7376;BME280;3728;42.266;24.944;2023-03-05T06:54:09;99178.31;;;7.94;100.00
7376;BME280;3728;42.266;24.944;2023-03-05T06:56:40;99177.16;;;8.00;100.00
7376;BME280;3728;42.266;24.944;2023-03-05T06:59:11;99181.03;;;8.02;100.00
7376;BME280;3728;42.266;24.944;2023-03-05T07:01:40;99169.25;;;8.05;100.00
7376;BME280;3728;42.266;24.944;2023-03-05T07:04:08;99169.16;;;8.10;100.00
7376;BME280;3728;42.266;24.944;2023-03-05T07:06:37;99164.00;;;8.18;100.00
7376;BME280;3728;42.266;24.944;2023-03-05T07:09:06;99163.31;;;8.40;100.00
7376;BME280;3728;42.266;24.944;2023-03-05T07:11:36;99162.03;;;8.51;100.00
7376;BME280;3728;42.266;24.944;2023-03-05T07:14:03;99159.78;;;8.58;100.00
7376;BME280;3728;42.266;24.944;2023-03-05T07:16:32;99157.47;;;8.79;100.00
7376;BME280;3728;42.266;24.944;2023-03-05T07:19:03;99157.25;;;8.89;99.84
7376;BME280;3728;42.266;24.944;2023-03-05T07:21:33;99163.63;;;8.97;98.37
7376;BME280;3728;42.266;24.944;2023-03-05T07:24:05;99164.34;;;9.41;93.59
7376;BME280;3728;42.266;24.944;2023-03-05T07:26:34;99170.66;;;9.80;91.67
7376;BME280;3728;42.266;24.944;2023-03-05T07:29:02;99163.69;;;9.67;91.99
7376;BME280;3728;42.266;24.944;2023-03-05T07:31:30;99166.75;;;10.08;88.91
7376;BME280;3728;42.266;24.944;2023-03-05T07:34:00;99161.41;;;10.21;87.59
7376;BME280;3728;42.266;24.944;2023-03-05T07:36:30;99160.88;;;10.11;89.04
7376;BME280;3728;42.266;24.944;2023-03-05T07:39:00;99153.28;;;10.49;89.23
7376;BME280;3728;42.266;24.944;2023-03-05T07:41:30;99159.13;;;10.37;88.75
7376;BME280;3728;42.266;24.944;2023-03-05T07:43:57;99153.59;;;10.39;88.24
7376;BME280;3728;42.266;24.944;2023-03-05T07:46:28;99158.16;;;10.16;88.56
7376;BME280;3728;42.266;24.944;2023-03-05T07:48:57;99154.41;;;10.00;88.52
7376;BME280;3728;42.266;24.944;2023-03-05T07:51:26;99157.56;;;10.19;91.15
7376;BME280;3728;42.266;24.944;2023-03-05T07:53:55;99153.59;;;10.39;93.57
7376;BME280;3728;42.266;24.944;2023-03-05T07:59:05;99143.59;;;10.66;94.12
7376;BME280;3728;42.266;24.944;2023-03-05T08:01:34;99141.09;;;10.87;91.86
7376;BME280;3728;42.266;24.944;2023-03-05T08:04:04;99151.28;;;10.80;90.29
7376;BME280;3728;42.266;24.944;2023-03-05T08:06:32;99140.78;;;10.97;88.97
7376;BME280;3728;42.266;24.944;2023-03-05T08:08:59;99133.53;;;10.77;91.05
7376;BME280;3728;42.266;24.944;2023-03-05T08:11:27;99135.09;;;10.95;89.83
7376;BME280;3728;42.266;24.944;2023-03-05T08:13:56;99133.22;;;10.87;91.40
7376;BME280;3728;42.266;24.944;2023-03-05T08:16:25;99135.78;;;11.21;89.83
7376;BME280;3728;42.266;24.944;2023-03-05T08:18:56;99137.03;;;11.15;89.20
7376;BME280;3728;42.266;24.944;2023-03-05T08:21:26;99130.13;;;11.11;88.33
7376;BME280;3728;42.266;24.944;2023-03-05T08:23:56;99127.75;;;11.26;88.08
7376;BME280;3728;42.266;24.944;2023-03-05T08:26:26;99125.56;;;11.28;89.14
7376;BME280;3728;42.266;24.944;2023-03-05T08:28:54;99117.25;;;11.26;83.05
7376;BME280;3728;42.266;24.944;2023-03-05T08:31:27;99128.09;;;11.16;85.75
7376;BME280;3728;42.266;24.944;2023-03-05T08:33:58;99122.97;;;11.28;87.20
7376;BME280;3728;42.266;24.944;2023-03-05T08:36:28;99119.38;;;11.41;87.36
7376;BME280;3728;42.266;24.944;2023-03-05T08:38:56;99123.34;;;11.47;86.59
7376;BME280;3728;42.266;24.944;2023-03-05T08:41:25;99122.38;;;11.98;84.27
7376;BME280;3728;42.266;24.944;2023-03-05T08:43:53;99119.25;;;11.76;84.89
7376;BME280;3728;42.266;24.944;2023-03-05T08:46:21;99122.50;;;12.02;83.04
7376;BME280;3728;42.266;24.944;2023-03-05T08:48:51;99111.81;;;11.78;84.25
7376;BME280;3728;42.266;24.944;2023-03-05T08:51:23;99113.09;;;11.72;87.38
7376;BME280;3728;42.266;24.944;2023-03-05T08:53:53;99106.09;;;11.84;85.13
7376;BME280;3728;42.266;24.944;2023-03-05T08:56:23;99102.63;;;11.92;85.38
7376;BME280;3728;42.266;24.944;2023-03-05T08:58:53;99097.56;;;11.87;84.78
7376;BME280;3728;42.266;24.944;2023-03-05T09:01:22;99098.44;;;11.71;88.28
7376;BME280;3728;42.266;24.944;2023-03-05T09:03:50;99100.19;;;11.87;85.03
7376;BME280;3728;42.266;24.944;2023-03-05T09:06:20;99091.78;;;12.02;85.41
7376;BME280;3728;42.266;24.944;2023-03-05T09:08:49;99092.69;;;12.27;83.50
7376;BME280;3728;42.266;24.944;2023-03-05T09:11:17;99091.66;;;12.19;83.96
7376;BME280;3728;42.266;24.944;2023-03-05T09:13:45;99100.09;;;12.04;83.25
7376;BME280;3728;42.266;24.944;2023-03-05T09:16:15;99091.16;;;11.76;84.57
7376;BME280;3728;42.266;24.944;2023-03-05T09:18:44;99094.25;;;11.99;84.48
7376;BME280;3728;42.266;24.944;2023-03-05T09:21:15;99091.41;;;12.12;82.41
7376;BME280;3728;42.266;24.944;2023-03-05T09:23:44;99090.44;;;12.17;81.99
7376;BME280;3728;42.266;24.944;2023-03-05T09:26:15;99087.44;;;12.27;81.56
7376;BME280;3728;42.266;24.944;2023-03-05T09:28:45;99093.25;;;12.32;82.89
7376;BME280;3728;42.266;24.944;2023-03-05T09:31:14;99093.66;;;12.43;79.43
7376;BME280;3728;42.266;24.944;2023-03-05T09:33:43;99085.91;;;12.26;80.16
7376;BME280;3728;42.266;24.944;2023-03-05T09:38:49;99081.69;;;12.13;82.06
7376;BME280;3728;42.266;24.944;2023-03-05T09:47:27;99075.72;;;12.24;81.22
7376;BME280;3728;42.266;24.944;2023-03-05T09:50:29;99070.16;;;12.59;80.65
7376;BME280;3728;42.266;24.944;2023-03-05T09:56:14;99055.91;;;12.80;79.62
7376;BME280;3728;42.266;24.944;2023-03-05T10:01:41;99048.19;;;12.63;81.35
7376;BME280;3728;42.266;24.944;2023-03-05T10:06:55;99041.75;;;13.42;75.22
7376;BME280;3728;42.266;24.944;2023-03-05T10:10:00;99038.44;;;13.45;73.02
7376;BME280;3728;42.266;24.944;2023-03-05T10:15:14;99039.13;;;13.30;75.45
7376;BME280;3728;42.266;24.944;2023-03-05T10:20:59;99025.84;;;13.62;74.90
7376;BME280;3728;42.266;24.944;2023-03-05T10:27:19;99011.81;;;13.70;72.36
7376;BME280;3728;42.266;24.944;2023-03-05T10:30:36;99006.03;;;13.93;72.90
7376;BME280;3728;42.266;24.944;2023-03-05T10:33:32;99002.91;;;14.15;70.05
7376;BME280;3728;42.266;24.944;2023-03-05T10:36:30;99001.41;;;13.90;69.87
7376;BME280;3728;42.266;24.944;2023-03-05T10:42:15;98987.75;;;13.84;70.18
7376;BME280;3728;42.266;24.944;2023-03-05T10:48:45;98976.09;;;13.85;72.04
7376;BME280;3728;42.266;24.944;2023-03-05T10:51:34;98969.75;;;14.42;68.08
7376;BME280;3728;42.266;24.944;2023-03-05T10:54:18;98965.78;;;14.48;66.46
7376;BME280;3728;42.266;24.944;2023-03-05T11:00:23;98943.41;;;14.42;66.85
7376;BME280;3728;42.266;24.944;2023-03-05T11:03:08;98937.75;;;14.71;65.87
7376;BME280;3728;42.266;24.944;2023-03-05T11:05:49;98937.16;;;15.12;62.64
7376;BME280;3728;42.266;24.944;2023-03-05T11:08:33;98935.81;;;15.18;62.74
7376;BME280;3728;42.266;24.944;2023-03-05T11:11:16;98916.88;;;15.47;61.97
7376;BME280;3728;42.266;24.944;2023-03-05T11:14:01;98918.81;;;15.50;61.17
7376;BME280;3728;42.266;24.944;2023-03-05T11:16:33;98917.97;;;15.12;63.27
7376;BME280;3728;42.266;24.944;2023-03-05T11:19:19;98900.59;;;15.11;62.68
7376;BME280;3728;42.266;24.944;2023-03-05T11:24:40;98893.31;;;15.04;63.33
7376;BME280;3728;42.266;24.944;2023-03-05T11:27:34;98885.28;;;15.16;61.61
7376;BME280;3728;42.266;24.944;2023-03-05T11:30:21;98883.88;;;15.22;63.50
7376;BME280;3728;42.266;24.944;2023-03-05T11:35:42;98877.28;;;15.66;59.79
7376;BME280;3728;42.266;24.944;2023-03-05T11:38:23;98877.34;;;15.89;59.78
7376;BME280;3728;42.266;24.944;2023-03-05T11:40:54;98875.38;;;15.86;61.76
7376;BME280;3728;42.266;24.944;2023-03-05T11:43:24;98873.25;;;15.92;59.06
7376;BME280;3728;42.266;24.944;2023-03-05T11:46:00;98880.22;;;15.61;59.73
7376;BME280;3728;42.266;24.944;2023-03-05T11:48:35;98882.13;;;15.64;57.63
7376;BME280;3728;42.266;24.944;2023-03-05T11:51:12;98882.47;;;16.01;55.80
7376;BME280;3728;42.266;24.944;2023-03-05T11:53:45;98877.13;;;15.79;56.00
7376;BME280;3728;42.266;24.944;2023-03-05T11:58:56;98873.47;;;15.10;62.63
7376;BME280;3728;42.266;24.944;2023-03-05T12:01:35;98865.91;;;15.08;62.89
7376;BME280;3728;42.266;24.944;2023-03-05T12:04:08;98867.66;;;15.20;64.72
7376;BME280;3728;42.266;24.944;2023-03-05T12:06:45;98865.38;;;15.38;63.69
7376;BME280;3728;42.266;24.944;2023-03-05T12:09:45;98869.41;;;15.32;60.04
7376;BME280;3728;42.266;24.944;2023-03-05T12:18:29;98866.69;;;15.09;60.68
7376;BME280;3728;42.266;24.944;2023-03-05T12:37:59;98847.44;;;14.74;66.54
7376;BME280;3728;42.266;24.944;2023-03-05T12:40:49;98852.78;;;14.77;66.76
7376;BME280;3728;42.266;24.944;2023-03-05T12:43:32;98857.44;;;14.99;67.22
7376;BME280;3728;42.266;24.944;2023-03-05T12:46:25;98856.31;;;15.00;65.07
7376;BME280;3728;42.266;24.944;2023-03-05T12:48:58;98853.81;;;15.07;65.42
7376;BME280;3728;42.266;24.944;2023-03-05T12:51:29;98848.84;;;15.02;65.49
7376;BME280;3728;42.266;24.944;2023-03-05T12:57:22;98844.56;;;14.79;67.86
7376;BME280;3728;42.266;24.944;2023-03-05T13:02:40;98842.56;;;14.91;69.09
7376;BME280;3728;42.266;24.944;2023-03-05T13:05:25;98844.72;;;14.86;67.45
7376;BME280;3728;42.266;24.944;2023-03-05T13:08:23;98848.69;;;14.80;67.67
7376;BME280;3728;42.266;24.944;2023-03-05T13:11:01;98846.06;;;14.80;68.79
7376;BME280;3728;42.266;24.944;2023-03-05T13:13:42;98841.91;;;14.79;69.28
7376;BME280;3728;42.266;24.944;2023-03-05T13:16:23;98838.16;;;14.80;70.41
7376;BME280;3728;42.266;24.944;2023-03-05T13:18:56;98830.50;;;14.75;69.91
7376;BME280;3728;42.266;24.944;2023-03-05T13:21:29;98831.47;;;14.51;73.28
7376;BME280;3728;42.266;24.944;2023-03-05T13:24:01;98830.75;;;14.51;74.13
7376;BME280;3728;42.266;24.944;2023-03-05T13:26:37;98833.78;;;14.37;73.57
7376;BME280;3728;42.266;24.944;2023-03-05T13:29:15;98832.81;;;14.61;72.81
7376;BME280;3728;42.266;24.944;2023-03-05T13:34:32;98824.19;;;14.29;75.15
7376;BME280;3728;42.266;24.944;2023-03-05T13:37:17;98826.97;;;14.05;78.21
7376;BME280;3728;42.266;24.944;2023-03-05T13:39:49;98816.44;;;13.89;77.70
7376;BME280;3728;42.266;24.944;2023-03-05T13:42:25;98820.91;;;13.89;77.47
7376;BME280;3728;42.266;24.944;2023-03-05T13:44:59;98817.56;;;13.60;76.12
7376;BME280;3728;42.266;24.944;2023-03-05T13:47:31;98806.50;;;13.55;77.02
7376;BME280;3728;42.266;24.944;2023-03-05T13:50:20;98807.50;;;13.50;76.60
7376;BME280;3728;42.266;24.944;2023-03-05T13:52:54;98808.25;;;13.35;76.34
7376;BME280;3728;42.266;24.944;2023-03-05T13:55:24;98804.50;;;13.36;75.74
7376;BME280;3728;42.266;24.944;2023-03-05T13:57:52;98807.66;;;13.42;75.22
7376;BME280;3728;42.266;24.944;2023-03-05T14:03:25;98802.28;;;13.66;74.72
7376;BME280;3728;42.266;24.944;2023-03-05T14:05:54;98800.13;;;14.15;72.09
7376;BME280;3728;42.266;24.944;2023-03-05T14:08:24;98795.13;;;14.41;69.55
7376;BME280;3728;42.266;24.944;2023-03-05T14:10:55;98797.94;;;14.83;66.57
7376;BME280;3728;42.266;24.944;2023-03-05T14:13:24;98801.31;;;16.02;64.22
7376;BME280;3728;42.266;24.944;2023-03-05T14:18:34;98802.16;;;18.17;53.55
7376;BME280;3728;42.266;24.944;2023-03-05T14:21:08;98804.13;;;18.89;52.32
7376;BME280;3728;42.266;24.944;2023-03-05T14:23:41;98805.91;;;19.39;49.90
7376;BME280;3728;42.266;24.944;2023-03-05T14:34:39;98790.09;;;16.31;53.60
7376;BME280;3728;42.266;24.944;2023-03-05T14:37:28;98782.00;;;15.94;57.25
7376;BME280;3728;42.266;24.944;2023-03-05T14:40:05;98776.50;;;16.06;56.87
7376;BME280;3728;42.266;24.944;2023-03-05T14:45:36;98772.00;;;18.39;51.12
7376;BME280;3728;42.266;24.944;2023-03-05T14:48:06;98775.56;;;18.61;49.10
7376;BME280;3728;42.266;24.944;2023-03-05T14:50:50;98771.78;;;18.08;50.03
7376;BME280;3728;42.266;24.944;2023-03-05T14:53:27;98769.69;;;17.47;51.39
7376;BME280;3728;42.266;24.944;2023-03-05T14:55:57;98769.94;;;17.01;51.81
7376;BME280;3728;42.266;24.944;2023-03-05T14:58:30;98762.63;;;16.62;53.08
7376;BME280;3728;42.266;24.944;2023-03-05T15:01:02;98771.66;;;16.87;53.57
7376;BME280;3728;42.266;24.944;2023-03-05T15:03:33;98772.97;;;17.70;51.86
7376;BME280;3728;42.266;24.944;2023-03-05T15:06:05;98775.72;;;18.89;47.70
7376;BME280;3728;42.266;24.944;2023-03-05T15:08:33;98775.63;;;19.72;46.25
7376;BME280;3728;42.266;24.944;2023-03-05T15:11:02;98784.75;;;20.31;45.33
7376;BME280;3728;42.266;24.944;2023-03-05T15:13:32;98784.66;;;20.84;44.98
7376;BME280;3728;42.266;24.944;2023-03-05T15:16:04;98784.59;;;21.12;42.94
7376;BME280;3728;42.266;24.944;2023-03-05T15:18:39;98781.13;;;21.15;42.03
7376;BME280;3728;42.266;24.944;2023-03-05T15:21:09;98780.13;;;20.77;43.23
7376;BME280;3728;42.266;24.944;2023-03-05T15:23:38;98780.97;;;20.46;43.79